createdAt,value
2022-08-24T00:01:15.152Z,6.40
2022-08-24T00:03:49.464Z,6.20
2022-08-24T00:06:29.694Z,6.63
2022-08-24T00:09:02.973Z,5.75
2022-08-24T00:11:37.604Z,5.88
2022-08-24T00:14:11.512Z,5.88
2022-08-24T00:16:44.740Z,6.20
2022-08-24T00:19:18.439Z,5.95
2022-08-24T00:21:52.223Z,5.97
2022-08-24T00:24:25.699Z,6.00
2022-08-24T00:27:00.547Z,6.55
2022-08-24T00:29:35.126Z,6.43
2022-08-24T00:32:08.595Z,6.70
2022-08-24T00:34:41.842Z,6.75
2022-08-24T00:37:25.545Z,6.40
2022-08-24T00:39:59.502Z,6.45
2022-08-24T00:42:34.650Z,5.95
2022-08-24T00:45:12.045Z,5.85
2022-08-24T00:47:50.297Z,6.38
2022-08-24T00:50:28.561Z,6.22
2022-08-24T00:53:07.870Z,6.88
2022-08-24T00:55:46.831Z,6.57
2022-08-24T00:58:27.481Z,6.18
2022-08-24T01:01:04.425Z,6.82
2022-08-24T01:03:39.389Z,6.72
2022-08-24T01:06:14.231Z,6.93
2022-08-24T01:08:47.414Z,6.03
2022-08-24T01:11:34.030Z,6.80
2022-08-24T01:14:09.197Z,6.22
2022-08-24T01:17:00.532Z,7.28
2022-08-24T01:19:39.499Z,7.07
2022-08-24T01:22:55.080Z,7.47
2022-08-24T01:25:33.728Z,7.20
2022-08-24T01:28:12.165Z,6.78
2022-08-24T01:30:46.136Z,6.93
2022-08-24T01:33:28.620Z,6.60
2022-08-24T01:36:08.351Z,6.55
2022-08-24T01:38:42.248Z,6.75
2022-08-24T01:41:16.959Z,6.97
2022-08-24T01:43:50.147Z,6.78
2022-08-24T01:46:23.426Z,6.32
2022-08-24T01:48:59.094Z,6.40
2022-08-24T01:51:34.046Z,6.85
2022-08-24T01:54:09.020Z,7.30
2022-08-24T01:56:43.943Z,7.82
2022-08-24T01:59:19.408Z,7.30
2022-08-24T02:01:58.320Z,8.02
2022-08-24T02:04:34.364Z,7.70
2022-08-24T02:07:09.393Z,7.22
2022-08-24T02:09:43.047Z,8.18
2022-08-24T02:12:18.598Z,7.72
2022-08-24T02:14:52.238Z,7.38
2022-08-24T02:17:25.491Z,7.53
2022-08-24T02:19:58.800Z,6.88
2022-08-24T02:22:32.027Z,7.35
2022-08-24T02:25:06.320Z,7.70
2022-08-24T02:27:43.166Z,7.00
2022-08-24T02:30:17.697Z,7.38
2022-08-24T02:32:51.179Z,7.95
2022-08-24T02:35:24.915Z,6.63
2022-08-24T02:37:58.704Z,7.35
2022-08-24T02:40:32.404Z,7.63
2022-08-24T02:43:07.274Z,7.60
2022-08-24T02:45:42.236Z,6.72
2022-08-24T02:48:15.854Z,6.70
2022-08-24T02:50:52.117Z,6.82
2022-08-24T02:53:25.966Z,6.78
2022-08-24T02:55:59.338Z,7.57
2022-08-24T02:58:33.972Z,6.05
2022-08-24T03:01:14.380Z,6.57
2022-08-24T03:03:57.822Z,6.57
2022-08-24T03:06:31.383Z,6.38
2022-08-24T03:09:04.912Z,5.78
2022-08-24T03:11:38.318Z,5.80
2022-08-24T03:14:13.225Z,7.13
2022-08-24T03:16:46.886Z,6.45
2022-08-24T03:19:20.352Z,6.63
2022-08-24T03:21:54.300Z,6.90
2022-08-24T03:24:27.613Z,7.15
2022-08-24T03:27:00.871Z,7.85
2022-08-24T03:29:37.192Z,7.45
2022-08-24T03:32:10.804Z,7.55
2022-08-24T03:34:43.946Z,7.93
2022-08-24T03:37:17.377Z,7.43
2022-08-24T03:39:51.119Z,7.70
2022-08-24T03:42:24.336Z,7.63
2022-08-24T03:44:58.831Z,7.45
2022-08-24T03:47:32.042Z,7.25
2022-08-24T03:50:08.043Z,7.90
2022-08-24T03:52:41.716Z,7.70
2022-08-24T03:55:15.120Z,7.20
2022-08-24T03:57:48.530Z,7.55
2022-08-24T04:00:23.477Z,7.30
2022-08-24T04:02:56.705Z,7.03
2022-08-24T04:05:30.084Z,7.38
2022-08-24T04:08:09.439Z,7.90
2022-08-24T04:10:46.516Z,6.97
2022-08-24T04:13:19.830Z,8.15
2022-08-24T04:15:54.546Z,6.53
2022-08-24T04:18:28.844Z,6.97
2022-08-24T04:21:02.751Z,6.38
2022-08-24T04:23:46.570Z,6.18
2022-08-24T04:26:45.274Z,6.63
2022-08-24T04:29:20.483Z,7.00
2022-08-24T04:31:55.684Z,6.82
2022-08-24T04:34:28.910Z,6.95
2022-08-24T04:37:02.222Z,7.22
2022-08-24T04:39:35.360Z,7.10
2022-08-24T04:42:09.488Z,8.38
2022-08-24T04:44:42.871Z,8.23
2022-08-24T04:47:17.667Z,8.02
2022-08-24T04:49:50.958Z,7.95
2022-08-24T04:52:24.318Z,8.45
2022-08-24T04:54:57.599Z,8.50
2022-08-24T04:57:30.808Z,8.05
2022-08-24T05:00:09.338Z,8.52
2022-08-24T05:02:45.222Z,8.18
2022-08-24T05:05:18.797Z,8.00
2022-08-24T05:07:56.379Z,7.80
2022-08-24T05:10:31.854Z,7.60
2022-08-24T05:13:07.511Z,8.43
2022-08-24T05:15:44.049Z,8.20
2022-08-24T05:18:19.503Z,7.88
2022-08-24T05:20:52.751Z,8.07
2022-08-24T05:23:26.537Z,8.32
2022-08-24T05:26:07.242Z,8.00
2022-08-24T05:28:41.398Z,7.38
2022-08-24T05:31:18.409Z,7.13
2022-08-24T05:33:53.426Z,7.95
2022-08-24T05:36:30.169Z,7.18
2022-08-24T05:39:10.663Z,6.40
2022-08-24T05:41:46.653Z,7.15
2022-08-24T05:44:20.173Z,6.70
2022-08-24T05:46:54.438Z,6.43
2022-08-24T05:49:29.756Z,6.82
2022-08-24T05:52:03.462Z,7.05
2022-08-24T05:54:36.866Z,6.53
2022-08-24T05:57:10.193Z,7.10
2022-08-24T05:59:43.425Z,6.07
2022-08-24T06:02:17.845Z,6.45
2022-08-24T06:04:52.634Z,6.07
2022-08-24T06:07:27.003Z,5.80
2022-08-24T06:10:14.587Z,5.90
2022-08-24T06:12:53.760Z,6.38
2022-08-24T06:15:27.691Z,5.93
2022-08-24T06:18:01.040Z,5.80
2022-08-24T06:20:41.957Z,5.90
2022-08-24T06:23:15.403Z,5.35
2022-08-24T06:26:06.335Z,5.43
2022-08-24T06:28:39.874Z,5.38
2022-08-24T06:31:13.627Z,6.05
2022-08-24T06:33:47.990Z,5.53
2022-08-24T06:36:23.473Z,5.28
2022-08-24T06:38:56.976Z,5.72
2022-08-24T06:41:31.958Z,5.68
2022-08-24T06:44:06.115Z,5.50
2022-08-24T06:46:39.602Z,5.13
2022-08-24T06:49:12.917Z,5.43
2022-08-24T06:51:50.755Z,5.43
2022-08-24T06:54:24.373Z,4.47
2022-08-24T06:56:58.662Z,5.00
2022-08-24T06:59:33.639Z,5.28
2022-08-24T07:02:07.205Z,5.55
2022-08-24T07:04:40.853Z,5.18
2022-08-24T07:07:17.289Z,5.20
2022-08-24T07:09:50.520Z,4.68
2022-08-24T07:12:23.952Z,4.80
2022-08-24T07:14:57.293Z,6.00
2022-08-24T07:17:31.004Z,5.30
2022-08-24T07:20:05.256Z,4.72
2022-08-24T07:22:40.179Z,5.35
2022-08-24T07:25:14.676Z,4.93
2022-08-24T07:27:47.951Z,4.20
2022-08-24T07:30:27.461Z,3.75
2022-08-24T07:33:01.292Z,3.80
2022-08-24T07:35:35.044Z,4.00
2022-08-24T07:38:10.116Z,3.70
2022-08-24T07:41:14.307Z,4.00
2022-08-24T07:43:42.975Z,3.85
2022-08-24T07:46:16.940Z,4.32
2022-08-24T07:49:00.049Z,3.70
2022-08-24T07:51:44.864Z,3.17
2022-08-24T07:54:21.932Z,4.13
2022-08-24T07:56:55.162Z,4.13
2022-08-24T07:59:28.662Z,3.63
2022-08-24T08:02:02.210Z,3.28
2022-08-24T08:04:35.809Z,3.38
2022-08-24T08:07:09.373Z,3.08
2022-08-24T08:09:44.635Z,3.15
2022-08-24T08:12:19.024Z,3.53
2022-08-24T08:14:52.355Z,3.00
2022-08-24T08:17:25.797Z,3.20
2022-08-24T08:19:59.219Z,3.28
2022-08-24T08:22:50.007Z,3.60
2022-08-24T08:25:25.091Z,3.58
2022-08-24T08:28:04.276Z,3.17
2022-08-24T08:30:46.936Z,3.38
2022-08-24T08:33:20.766Z,3.33
2022-08-24T08:36:02.500Z,3.85
2022-08-24T08:38:37.857Z,3.28
2022-08-24T08:42:07.710Z,3.53
2022-08-24T08:44:54.379Z,4.03
2022-08-24T08:48:34.510Z,3.05
2022-08-24T08:52:00.309Z,3.20
2022-08-24T08:54:44.364Z,2.97
2022-08-24T08:57:45.370Z,2.92
2022-08-24T09:00:22.384Z,2.90
2022-08-24T09:03:25.611Z,3.45
2022-08-24T09:06:50.231Z,3.10
2022-08-24T09:09:42.987Z,2.90
2022-08-24T09:12:30.717Z,2.90
2022-08-24T09:15:37.831Z,2.70
2022-08-24T09:18:27.985Z,2.63
2022-08-24T09:21:18.693Z,2.92
2022-08-24T09:24:17.979Z,2.67
2022-08-24T09:27:03.115Z,2.38
2022-08-24T09:30:00.822Z,2.80
2022-08-24T09:32:50.474Z,2.90
2022-08-24T09:35:35.060Z,2.97
2022-08-24T09:38:19.800Z,3.30
2022-08-24T09:41:32.071Z,2.65
2022-08-24T09:44:56.705Z,2.35
2022-08-24T09:48:31.331Z,2.30
2022-08-24T09:51:45.677Z,2.15
2022-08-24T09:55:17.259Z,1.92
2022-08-24T09:58:05.395Z,2.45
2022-08-24T10:00:46.888Z,2.30
2022-08-24T10:03:42.521Z,2.30
2022-08-24T10:06:31.380Z,2.60
2022-08-24T10:09:24.518Z,2.22
2022-08-24T10:12:06.824Z,3.78
2022-08-24T10:14:52.706Z,2.70
2022-08-24T10:17:44.224Z,2.78
2022-08-24T10:20:25.214Z,2.70
2022-08-24T10:23:46.980Z,2.40
2022-08-24T10:26:33.913Z,2.72
2022-08-24T10:29:45.565Z,2.88
2022-08-24T10:32:45.540Z,2.50
2022-08-24T10:35:27.096Z,2.53
2022-08-24T10:38:47.916Z,2.60
2022-08-24T10:42:33.467Z,2.50
2022-08-24T10:45:21.886Z,2.33
2022-08-24T10:48:17.994Z,2.80
2022-08-24T10:51:00.408Z,2.75
2022-08-24T10:53:34.921Z,2.50
2022-08-24T10:56:12.844Z,2.55
2022-08-24T10:58:53.624Z,2.40
2022-08-24T11:01:32.086Z,3.00
2022-08-24T11:04:10.555Z,2.40
2022-08-24T11:07:11.615Z,2.47
2022-08-24T11:09:53.940Z,2.25
2022-08-24T11:12:31.063Z,2.15
2022-08-24T11:15:12.622Z,2.05
2022-08-24T11:17:57.225Z,1.95
2022-08-24T11:20:33.719Z,4.70
2022-08-24T11:23:16.648Z,2.33
2022-08-24T11:26:00.195Z,1.95
2022-08-24T11:28:39.131Z,2.83
2022-08-24T11:31:15.825Z,2.40
2022-08-24T11:33:53.019Z,2.08
2022-08-24T11:36:30.640Z,2.20
2022-08-24T11:39:21.902Z,2.35
2022-08-24T11:42:00.287Z,2.20
2022-08-24T11:44:47.096Z,3.47
2022-08-24T11:47:55.014Z,3.72
2022-08-24T11:50:35.725Z,2.35
2022-08-24T11:53:25.741Z,2.75
2022-08-24T11:56:11.427Z,2.30
2022-08-24T11:58:56.685Z,2.20
2022-08-24T12:01:36.575Z,2.58
2022-08-24T12:04:50.999Z,2.25
2022-08-24T12:07:44.246Z,2.58
2022-08-24T12:10:34.592Z,2.85
2022-08-24T12:13:21.417Z,2.70
2022-08-24T12:16:05.213Z,2.70
2022-08-24T12:18:51.698Z,3.33
2022-08-24T12:21:31.787Z,2.60
2022-08-24T12:24:08.963Z,2.47
2022-08-24T12:26:47.381Z,2.45
2022-08-24T12:29:30.205Z,2.78
2022-08-24T12:32:08.224Z,2.70
2022-08-24T12:34:59.357Z,3.00
2022-08-24T12:37:40.151Z,2.75
2022-08-24T12:40:23.551Z,2.50
2022-08-24T12:43:04.669Z,3.08
2022-08-24T12:45:39.726Z,3.08
2022-08-24T12:48:21.791Z,3.20
2022-08-24T12:51:15.125Z,2.92
2022-08-24T12:54:13.641Z,2.78
2022-08-24T12:57:15.841Z,2.70
2022-08-24T12:59:51.779Z,3.10
2022-08-24T13:02:37.324Z,2.95
2022-08-24T13:05:20.793Z,2.92
2022-08-24T13:08:11.186Z,2.92
2022-08-24T13:10:54.771Z,3.20
2022-08-24T13:14:07.900Z,3.35
2022-08-24T13:17:13.475Z,3.20
2022-08-24T13:20:21.660Z,3.50
2022-08-24T13:23:08.577Z,3.20
2022-08-24T13:25:57.029Z,2.92
2022-08-24T13:28:42.224Z,3.15
2022-08-24T13:31:31.721Z,3.00
2022-08-24T13:34:44.225Z,3.00
2022-08-24T13:37:23.689Z,2.90
2022-08-24T13:40:16.395Z,2.65
2022-08-24T13:43:10.273Z,3.08
2022-08-24T13:45:51.341Z,2.75
2022-08-24T13:48:43.068Z,2.90
2022-08-24T13:51:38.797Z,2.80
2022-08-24T13:54:26.112Z,2.85
2022-08-24T13:57:16.725Z,2.60
2022-08-24T14:00:35.850Z,2.83
2022-08-24T14:03:45.849Z,2.45
2022-08-24T14:06:32.614Z,2.72
2022-08-24T14:09:37.409Z,2.60
2022-08-24T14:12:38.518Z,2.88
2022-08-24T14:15:23.442Z,2.55
2022-08-24T14:18:10.643Z,2.65
2022-08-24T14:21:05.800Z,2.78
2022-08-24T14:23:53.275Z,3.08
2022-08-24T14:27:03.035Z,2.42
2022-08-24T14:29:45.241Z,2.50
2022-08-24T14:32:32.348Z,2.70
2022-08-24T14:35:41.375Z,2.38
2022-08-24T14:38:43.615Z,2.50
2022-08-24T14:41:25.810Z,2.40
2022-08-24T14:44:29.337Z,2.85
2022-08-24T14:47:09.204Z,2.45
2022-08-24T14:49:52.954Z,2.38
2022-08-24T14:52:56.056Z,2.20
2022-08-24T14:55:38.222Z,2.63
2022-08-24T14:58:36.542Z,2.35
2022-08-24T15:01:39.167Z,2.40
2022-08-24T15:04:40.772Z,2.67
2022-08-24T15:07:30.362Z,2.38
2022-08-24T15:10:13.684Z,2.65
2022-08-24T15:12:56.513Z,2.40
2022-08-24T15:15:39.598Z,2.35
2022-08-24T15:18:33.621Z,3.05
2022-08-24T15:21:38.266Z,2.47
2022-08-24T15:24:31.134Z,2.20
2022-08-24T15:27:16.672Z,2.33
2022-08-24T15:29:55.830Z,3.20
2022-08-24T15:32:45.004Z,2.20
2022-08-24T15:35:30.050Z,2.75
2022-08-24T15:38:21.226Z,2.42
2022-08-24T15:41:07.908Z,2.42
2022-08-24T15:43:47.085Z,2.45
2022-08-24T15:46:23.901Z,2.40
2022-08-24T15:49:03.887Z,2.47
2022-08-24T15:51:51.807Z,2.25
2022-08-24T15:54:36.325Z,1.73
2022-08-24T15:57:27.965Z,2.00
2022-08-24T16:00:14.548Z,2.25
2022-08-24T16:02:47.040Z,1.90
2022-08-24T16:05:38.172Z,2.30
2022-08-24T16:08:14.651Z,2.38
2022-08-24T16:10:51.711Z,2.15
2022-08-24T16:13:30.931Z,2.22
2022-08-24T16:16:09.091Z,2.50
2022-08-24T16:18:51.470Z,2.22
2022-08-24T16:21:33.935Z,2.45
2022-08-24T16:24:15.010Z,2.30
2022-08-24T16:27:00.679Z,2.67
2022-08-24T16:29:56.070Z,2.92
2022-08-24T16:32:33.336Z,2.25
2022-08-24T16:35:20.426Z,3.03
2022-08-24T16:37:55.474Z,2.22
2022-08-24T16:40:33.145Z,2.55
2022-08-24T16:43:06.669Z,2.15
2022-08-24T16:45:40.490Z,2.40
2022-08-24T16:48:13.885Z,2.50
2022-08-24T16:50:50.978Z,2.33
2022-08-24T16:53:25.609Z,2.67
2022-08-24T16:56:00.640Z,2.83
2022-08-24T16:58:37.287Z,2.90
2022-08-24T17:01:11.240Z,2.85
2022-08-24T17:03:48.284Z,2.75
2022-08-24T17:06:22.703Z,2.53
2022-08-24T17:08:55.988Z,2.75
2022-08-24T17:11:31.033Z,3.00
2022-08-24T17:14:04.626Z,3.70
2022-08-24T17:16:52.175Z,3.10
2022-08-24T17:19:25.896Z,2.72
2022-08-24T17:21:59.518Z,3.08
2022-08-24T17:24:33.905Z,2.97
2022-08-24T17:27:09.276Z,3.00
2022-08-24T17:29:44.755Z,2.92
2022-08-24T17:32:18.553Z,2.75
2022-08-24T17:34:52.061Z,2.60
2022-08-24T17:37:25.827Z,2.55
2022-08-24T17:40:00.373Z,2.47
2022-08-24T17:42:50.187Z,3.13
2022-08-24T17:45:24.561Z,2.80
2022-08-24T17:47:58.063Z,2.80
2022-08-24T17:50:31.420Z,2.40
2022-08-24T17:53:04.940Z,2.67
2022-08-24T17:55:38.377Z,2.97
2022-08-24T17:58:13.548Z,2.75
2022-08-24T18:00:47.130Z,3.03
2022-08-24T18:03:20.415Z,2.70
2022-08-24T18:05:53.702Z,2.78
2022-08-24T18:08:27.707Z,2.97
2022-08-24T18:11:01.029Z,3.00
2022-08-24T18:13:35.810Z,2.80
2022-08-24T18:16:16.645Z,3.25
2022-08-24T18:18:53.678Z,3.03
2022-08-24T18:21:27.025Z,2.80
2022-08-24T18:24:01.541Z,2.88
2022-08-24T18:26:35.472Z,2.97
2022-08-24T18:29:15.234Z,3.33
2022-08-24T18:31:49.636Z,2.92
2022-08-24T18:34:23.443Z,3.03
2022-08-24T18:36:56.700Z,4.13
2022-08-24T18:39:30.231Z,3.63
2022-08-24T18:42:08.977Z,4.07
2022-08-24T18:44:43.882Z,3.40
2022-08-24T18:47:17.286Z,3.50
2022-08-24T18:49:50.472Z,4.10
2022-08-24T18:52:24.126Z,3.72
2022-08-24T18:54:57.368Z,3.28
2022-08-24T18:57:30.786Z,3.78
2022-08-24T19:00:07.383Z,3.30
2022-08-24T19:02:40.937Z,3.30
2022-08-24T19:05:18.623Z,3.80
2022-08-24T19:07:54.650Z,4.22
2022-08-24T19:10:33.025Z,3.25
2022-08-24T19:13:10.834Z,3.35
2022-08-24T19:15:47.604Z,3.55
2022-08-24T19:18:23.955Z,3.70
2022-08-24T19:20:59.227Z,3.72
2022-08-24T19:23:36.423Z,3.40
2022-08-24T19:26:09.827Z,3.10
2022-08-24T19:28:42.945Z,3.75
2022-08-24T19:31:21.566Z,3.58
2022-08-24T19:33:55.119Z,3.63
2022-08-24T19:36:30.006Z,3.33
2022-08-24T19:39:03.657Z,3.30
2022-08-24T19:41:37.415Z,3.25
2022-08-24T19:44:28.320Z,3.70
2022-08-24T19:47:03.244Z,3.60
2022-08-24T19:49:36.643Z,3.65
2022-08-24T19:52:11.503Z,3.50
2022-08-24T19:54:47.853Z,3.45
2022-08-24T19:57:37.289Z,3.28
2022-08-24T20:00:37.234Z,3.47
2022-08-24T20:03:12.116Z,3.58
2022-08-24T20:05:45.836Z,3.63
2022-08-24T20:08:20.240Z,3.80
2022-08-24T20:10:58.656Z,3.50
2022-08-24T20:13:31.982Z,3.88
2022-08-24T20:16:07.300Z,3.65
2022-08-24T20:18:46.175Z,3.67
2022-08-24T20:21:19.659Z,4.30
2022-08-24T20:23:53.337Z,3.88
2022-08-24T20:26:26.508Z,4.28
2022-08-24T20:28:59.859Z,3.88
2022-08-24T20:31:33.039Z,4.82
2022-08-24T20:34:08.151Z,3.78
2022-08-24T20:36:46.096Z,4.50
2022-08-24T20:39:24.356Z,3.95
2022-08-24T20:41:57.799Z,4.38
2022-08-24T20:44:31.141Z,4.20
2022-08-24T20:47:04.926Z,4.20
2022-08-24T20:49:40.086Z,4.07
2022-08-24T20:52:14.376Z,4.57
2022-08-24T20:54:47.679Z,4.15
2022-08-24T20:57:21.559Z,4.32
2022-08-24T20:59:54.725Z,4.65
2022-08-24T21:02:28.390Z,4.63
2022-08-24T21:05:03.012Z,3.97
2022-08-24T21:07:36.392Z,4.10
2022-08-24T21:10:10.571Z,4.13
2022-08-24T21:12:44.124Z,4.10
2022-08-24T21:15:18.768Z,4.68
2022-08-24T21:17:52.224Z,4.03
2022-08-24T21:20:27.780Z,4.85
2022-08-24T21:23:01.315Z,4.65
2022-08-24T21:25:34.572Z,4.55
2022-08-24T21:28:07.892Z,4.50
2022-08-24T21:30:41.140Z,4.20
2022-08-24T21:33:32.246Z,4.18
2022-08-24T21:36:08.590Z,4.18
2022-08-24T21:38:45.421Z,4.70
2022-08-24T21:41:18.774Z,4.60
2022-08-24T21:43:52.647Z,4.60
2022-08-24T21:46:32.511Z,4.70
2022-08-24T21:49:06.825Z,4.63
2022-08-24T21:51:46.637Z,4.35
2022-08-24T21:54:19.909Z,4.90
2022-08-24T21:56:53.511Z,4.50
2022-08-24T21:59:27.185Z,4.40
2022-08-24T22:02:00.687Z,4.70
2022-08-24T22:04:35.595Z,4.88
2022-08-24T22:07:10.526Z,4.70
2022-08-24T22:09:45.218Z,5.82
2022-08-24T22:12:18.548Z,4.60
2022-08-24T22:14:51.692Z,4.90
2022-08-24T22:17:25.012Z,5.28
2022-08-24T22:19:58.394Z,5.00
2022-08-24T22:22:32.873Z,4.75
2022-08-24T22:25:07.215Z,5.13
2022-08-24T22:27:41.190Z,5.65
2022-08-24T22:30:18.270Z,4.85
2022-08-24T22:32:51.404Z,4.88
2022-08-24T22:35:24.579Z,4.97
2022-08-24T22:37:59.715Z,4.97
2022-08-24T22:40:33.254Z,4.93
2022-08-24T22:43:06.670Z,5.57
2022-08-24T22:45:40.296Z,5.30
2022-08-24T22:48:13.569Z,5.32
2022-08-24T22:50:47.000Z,4.90
2022-08-24T22:53:21.560Z,5.97
2022-08-24T22:55:54.779Z,5.00
2022-08-24T22:58:28.318Z,5.10
2022-08-24T23:01:01.484Z,5.05
2022-08-24T23:03:34.805Z,5.13
2022-08-24T23:06:08.582Z,4.63
2022-08-24T23:08:43.872Z,5.28
2022-08-24T23:11:18.530Z,5.28
2022-08-24T23:13:52.007Z,5.75
2022-08-24T23:16:27.541Z,5.40
2022-08-24T23:19:18.961Z,5.45
2022-08-24T23:21:52.394Z,5.65
2022-08-24T23:24:27.031Z,5.00
2022-08-24T23:27:00.324Z,5.28
2022-08-24T23:29:34.562Z,5.60
2022-08-24T23:32:08.614Z,5.30
2022-08-24T23:34:42.399Z,6.03
2022-08-24T23:37:16.648Z,4.72
2022-08-24T23:39:51.366Z,5.22
2022-08-24T23:42:24.525Z,5.53
2022-08-24T23:44:57.736Z,5.53
2022-08-24T23:47:35.774Z,5.20
2022-08-24T23:50:11.169Z,5.25
2022-08-24T23:52:44.532Z,5.22
2022-08-24T23:55:21.404Z,4.82
2022-08-24T23:57:55.993Z,5.40
